Miami, Florida
Traffic Map
Current Weather Conditions
Miami, Florida
Scattered Clouds
Scattered Clouds
88°
Feels Like: 98°
Wind Chill: 88° Ceiling: Unl
Heat Index: 98° Visibility: 10mi
Dew Point: 75° Wind: 0mph
Humidity: 65% Direction: ° ()
Pressure: 30.09in Gusts: 0mph
Raw Report DataKMIA 281353Z 00000KT 10SM SCT028 SCT300 31/24 A3009 RMK AO2 SLP191 T03110239
Traffic Incident Summary
Active as of:
Severity:
Category:
InformationThere was an issue retrieving the traffic information for this location. Please try a different location or try again shortly.
Advertisements
Track Severe Weather on mobile